KEWR/EWR METAR and TAF weather

Enter ICAO airport designator
Station Type Date Time Source
KEWR METAR 2021/08/04 18:51 UTC NOAA

KEWR 041851Z 14006KT 10SM FEW039 SCT085 BKN210 OVC250 26/14 A3012 RMK AO2 SLP200 T02560139


Station Type Date Time Source
KEWR Decoded METAR 2021/08/04 18:51 UTC NOAA

NEWARK INTERNATIONAL AIRPORT, NJ, United States (KEWR) 40-41N 74-10W 7M
Aug 04, 2021 - 02:51 PM EDT / 2021.08.04 1851 UTC
Wind: from the SE (140 degrees) at 7 MPH (6 KT):0
Visibility: 10 mile(s):0
Sky conditions: overcast
Temperature: 78.1 F (25.6 C)
Dew Point: 57.0 F (13.9 C)
Relative Humidity: 48%
Pressure (altimeter): 30.12 in. Hg (1019 hPa)
ob: KEWR 041851Z 14006KT 10SM FEW039 SCT085 BKN210 OVC250 26/14 A3012 RMK AO2 SLP200 T02560139
cycle: 19

Station Type Date Time Source
KEWR TAF 2021/08/04 18:39 UTC NOAA

TAF KEWR 041736Z 0418/0524 08009KT P6SM SCT030 OVC100
FM042200 08008KT P6SM SCT030 OVC060
FM050100 05006KT P6SM OVC040
FM050700 01007KT P6SM OVC025
FM051200 04008KT P6SM OVC020
FM051700 34005KT P6SM BKN045
FM052300 14006KT P6SM SCT080

Example: see airport list